createdAt,value
2019-05-02T00:00:45.333Z,21.03
2019-05-02T00:03:15.478Z,22.07
2019-05-02T00:05:45.371Z,21.40
2019-05-02T00:08:15.151Z,22.20
2019-05-02T00:10:45.051Z,21.40
2019-05-02T00:13:14.485Z,21.57
2019-05-02T00:15:45.572Z,21.77
2019-05-02T00:18:15.579Z,22.23
2019-05-02T00:20:44.965Z,22.37
2019-05-02T00:23:14.488Z,21.17
2019-05-02T00:25:47.283Z,21.20
2019-05-02T00:28:14.943Z,22.17
2019-05-02T00:30:44.538Z,21.07
2019-05-02T00:33:13.981Z,19.97
2019-05-02T00:35:46.082Z,19.97
2019-05-02T00:38:14.591Z,19.80
2019-05-02T00:40:46.310Z,20.70
2019-05-02T00:43:15.048Z,20.60
2019-05-02T00:45:44.480Z,21.60
2019-05-02T00:48:23.132Z,20.43
2019-05-02T00:50:52.465Z,21.40
2019-05-02T00:53:22.012Z,20.07
2019-05-02T00:55:51.386Z,20.13
2019-05-02T00:58:20.791Z,20.77
2019-05-02T01:01:09.137Z,20.57
2019-05-02T01:03:40.281Z,19.77
2019-05-02T01:06:13.981Z,20.83
2019-05-02T01:08:40.918Z,19.10
2019-05-02T01:11:10.354Z,21.30
2019-05-02T01:13:39.791Z,19.90
2019-05-02T01:16:09.258Z,19.00
2019-05-02T01:18:41.409Z,20.80
2019-05-02T01:21:10.395Z,20.20
2019-05-02T01:23:39.878Z,20.47
2019-05-02T01:26:10.945Z,19.00
2019-05-02T01:28:54.114Z,19.97
2019-05-02T01:31:30.468Z,19.87
2019-05-02T01:34:21.975Z,18.80
2019-05-02T01:37:00.130Z,19.40
2019-05-02T01:39:29.591Z,19.53
2019-05-02T01:41:59.888Z,19.57
2019-05-02T01:44:31.131Z,18.43
2019-05-02T01:47:01.401Z,19.17
2019-05-02T01:49:30.793Z,19.23
2019-05-02T01:52:00.201Z,18.90
2019-05-02T01:54:29.680Z,18.37
2019-05-02T01:56:59.070Z,19.10
2019-05-02T01:59:29.023Z,18.43
2019-05-02T02:01:59.627Z,18.53
2019-05-02T02:04:29.043Z,18.80
2019-05-02T02:06:58.419Z,17.67
2019-05-02T02:09:27.955Z,19.17
2019-05-02T02:11:57.323Z,17.30
2019-05-02T02:14:26.695Z,18.70
2019-05-02T02:16:56.175Z,17.10
2019-05-02T02:19:34.666Z,18.57
2019-05-02T02:22:09.039Z,19.60
2019-05-02T02:24:42.022Z,17.13
2019-05-02T02:27:11.459Z,18.50
2019-05-02T02:29:43.937Z,18.83
2019-05-02T02:32:12.004Z,18.10
2019-05-02T02:34:41.502Z,18.97
2019-05-02T02:37:14.724Z,18.70
2019-05-02T02:39:41.982Z,17.40
2019-05-02T02:42:11.355Z,18.27
2019-05-02T02:44:56.185Z,17.40
2019-05-02T02:47:25.620Z,17.87
2019-05-02T02:50:02.691Z,18.43
2019-05-02T02:52:26.156Z,18.47
2019-05-02T02:54:55.515Z,17.97
2019-05-02T02:57:28.229Z,17.67
2019-05-02T03:00:06.114Z,17.77
2019-05-02T03:02:27.229Z,18.87
2019-05-02T03:04:56.697Z,19.13
2019-05-02T03:07:28.773Z,19.77
2019-05-02T03:09:59.782Z,19.50
2019-05-02T03:12:59.341Z,18.57
2019-05-02T03:15:30.905Z,18.23
2019-05-02T03:18:02.091Z,20.13
2019-05-02T03:20:40.138Z,18.13
2019-05-02T03:23:02.843Z,19.00
2019-05-02T03:25:50.084Z,18.77
2019-05-02T03:28:04.096Z,17.83
2019-05-02T03:30:37.172Z,18.80
2019-05-02T03:33:10.971Z,19.77
2019-05-02T03:35:42.897Z,20.00
2019-05-02T03:38:07.354Z,19.90
2019-05-02T03:40:38.870Z,21.60
2019-05-02T03:43:08.453Z,19.67
2019-05-02T03:45:40.307Z,20.07
2019-05-02T03:48:09.111Z,19.87
2019-05-02T03:50:38.848Z,19.73
2019-05-02T03:53:08.339Z,21.23
2019-05-02T03:55:37.764Z,21.10
2019-05-02T03:58:13.840Z,20.53
2019-05-02T04:00:38.561Z,20.20
2019-05-02T04:03:08.478Z,19.97
2019-05-02T04:05:40.336Z,20.30
2019-05-02T04:08:20.146Z,20.53
2019-05-02T04:11:18.080Z,21.20
2019-05-02T04:13:47.818Z,19.33
2019-05-02T04:16:17.734Z,20.17
2019-05-02T04:18:54.453Z,20.17
2019-05-02T04:21:24.320Z,20.53
2019-05-02T04:23:50.217Z,18.97
2019-05-02T04:26:19.945Z,19.17
2019-05-02T04:28:51.554Z,19.90
2019-05-02T04:31:24.815Z,18.17
2019-05-02T04:33:52.112Z,17.00
2019-05-02T04:36:21.579Z,18.00
2019-05-02T04:38:52.471Z,17.93
2019-05-02T04:41:28.554Z,18.40
2019-05-02T04:43:57.353Z,17.40
2019-05-02T04:46:28.050Z,17.77
2019-05-02T04:48:58.758Z,17.80
2019-05-02T04:51:30.887Z,17.07
2019-05-02T04:53:58.947Z,17.53
2019-05-02T04:56:28.540Z,16.73
2019-05-02T04:59:01.401Z,16.80
2019-05-02T05:01:33.070Z,15.93
2019-05-02T05:04:03.026Z,16.00
2019-05-02T05:06:31.546Z,16.43
2019-05-02T05:09:03.985Z,16.07
2019-05-02T05:11:32.291Z,16.67
2019-05-02T05:14:01.761Z,15.97
2019-05-02T05:16:31.339Z,16.87
2019-05-02T05:19:00.814Z,14.63
2019-05-02T05:21:30.314Z,14.33
2019-05-02T05:24:18.788Z,14.70
2019-05-02T05:26:51.407Z,14.90
2019-05-02T05:29:23.200Z,14.40
2019-05-02T05:31:55.029Z,14.57
2019-05-02T05:34:28.573Z,14.00
2019-05-02T05:36:54.527Z,13.87
2019-05-02T05:39:24.118Z,14.97
2019-05-02T05:41:53.683Z,13.70
2019-05-02T05:44:27.904Z,15.10
2019-05-02T05:46:54.419Z,14.50
2019-05-02T05:49:23.980Z,13.63
2019-05-02T05:51:54.442Z,13.83
2019-05-02T05:54:24.858Z,14.40
2019-05-02T05:56:54.420Z,13.10
2019-05-02T05:59:28.320Z,13.83
2019-05-02T06:01:55.190Z,12.97
2019-05-02T06:04:30.149Z,13.30
2019-05-02T06:06:59.579Z,13.60
2019-05-02T06:09:31.253Z,12.47
2019-05-02T06:11:58.122Z,12.90
2019-05-02T06:14:27.668Z,14.03
2019-05-02T06:16:57.179Z,13.57
2019-05-02T06:19:26.677Z,13.33
2019-05-02T06:21:56.294Z,14.43
2019-05-02T06:24:25.821Z,13.07
2019-05-02T06:26:55.291Z,12.90
2019-05-02T06:29:24.795Z,13.80
2019-05-02T06:31:54.362Z,13.83
2019-05-02T06:34:23.936Z,13.57
2019-05-02T06:36:53.529Z,12.37
2019-05-02T06:39:27.092Z,13.67
2019-05-02T06:41:57.416Z,13.20
2019-05-02T06:44:25.628Z,12.50
2019-05-02T06:46:59.257Z,11.60
2019-05-02T06:49:26.453Z,13.13
2019-05-02T06:51:57.558Z,12.67
2019-05-02T06:54:27.192Z,12.00
2019-05-02T06:56:56.773Z,13.23
2019-05-02T06:59:26.297Z,12.43
2019-05-02T07:01:57.356Z,12.97
2019-05-02T07:04:27.260Z,12.43
2019-05-02T07:06:59.017Z,11.97
2019-05-02T07:09:39.938Z,12.67
2019-05-02T07:12:01.514Z,13.00
2019-05-02T07:14:30.657Z,12.37
2019-05-02T07:17:18.332Z,11.53
2019-05-02T07:19:50.910Z,11.70
2019-05-02T07:22:20.588Z,11.50
2019-05-02T07:24:50.246Z,11.43
2019-05-02T07:27:19.822Z,10.57
2019-05-02T07:29:52.189Z,10.50
2019-05-02T07:32:24.797Z,9.97
2019-05-02T07:34:51.833Z,10.67
2019-05-02T07:37:21.793Z,10.80
2019-05-02T07:39:51.335Z,10.57
2019-05-02T07:42:23.007Z,9.37
2019-05-02T07:44:52.687Z,9.70
2019-05-02T07:47:22.244Z,10.70
2019-05-02T07:49:51.920Z,9.23
2019-05-02T07:52:21.470Z,10.40
2019-05-02T07:54:51.096Z,10.83
2019-05-02T07:57:25.369Z,11.10
2019-05-02T07:59:55.102Z,10.83
2019-05-02T08:02:25.024Z,10.57
2019-05-02T08:04:55.223Z,10.60
2019-05-02T08:07:30.010Z,10.43
2019-05-02T08:09:56.133Z,10.43
2019-05-02T08:12:25.725Z,9.57
2019-05-02T08:14:55.331Z,10.37
2019-05-02T08:17:24.906Z,11.93
2019-05-02T08:19:54.379Z,10.67
2019-05-02T08:22:23.958Z,10.20
2019-05-02T08:24:53.534Z,9.97
2019-05-02T08:27:42.152Z,10.07
2019-05-02T08:30:21.255Z,10.30
2019-05-02T08:32:50.926Z,10.37
2019-05-02T08:35:20.765Z,10.63
2019-05-02T08:37:59.235Z,10.60
2019-05-02T08:40:28.872Z,9.37
2019-05-02T08:43:03.544Z,10.40
2019-05-02T08:45:33.113Z,10.27
2019-05-02T08:48:05.107Z,10.37
2019-05-02T08:50:34.975Z,10.27
2019-05-02T08:53:04.552Z,10.20
2019-05-02T08:55:34.196Z,10.70
2019-05-02T08:58:14.002Z,10.93
2019-05-02T09:00:39.487Z,10.87
2019-05-02T09:03:08.800Z,10.73
2019-05-02T09:05:45.571Z,10.80
2019-05-02T09:08:14.259Z,10.83
2019-05-02T09:10:42.224Z,10.70
2019-05-02T09:13:15.897Z,9.57
2019-05-02T09:15:49.774Z,11.57
2019-05-02T09:18:14.627Z,10.13
2019-05-02T09:20:47.050Z,10.73
2019-05-02T09:23:15.276Z,10.10
2019-05-02T09:25:44.801Z,9.27
2019-05-02T09:28:17.136Z,9.43
2019-05-02T09:30:46.857Z,8.67
2019-05-02T09:33:16.344Z,9.70
2019-05-02T09:35:45.834Z,10.07
2019-05-02T09:38:16.370Z,9.93
2019-05-02T09:40:47.169Z,10.03
2019-05-02T09:43:17.285Z,9.37
2019-05-02T09:45:46.874Z,9.07
2019-05-02T09:48:17.313Z,8.30
2019-05-02T09:50:47.497Z,9.63
2019-05-02T09:53:20.600Z,8.10
2019-05-02T09:55:50.267Z,8.17
2019-05-02T09:58:21.488Z,8.73
2019-05-02T10:01:03.012Z,9.80
2019-05-02T10:03:32.562Z,9.70
2019-05-02T10:06:03.089Z,8.60
2019-05-02T10:08:32.946Z,8.43
2019-05-02T10:11:02.994Z,8.30
2019-05-02T10:13:33.318Z,7.63
2019-05-02T10:16:02.852Z,7.57
2019-05-02T10:18:32.934Z,9.03
2019-05-02T10:21:03.154Z,7.40
2019-05-02T10:23:32.822Z,7.50
2019-05-02T10:26:04.167Z,5.47
2019-05-02T10:28:33.776Z,6.57
2019-05-02T10:31:03.315Z,7.00
2019-05-02T10:33:37.502Z,6.27
2019-05-02T10:36:04.632Z,6.40
2019-05-02T10:38:34.548Z,6.43
2019-05-02T10:41:04.919Z,6.37
2019-05-02T10:43:34.567Z,6.97
2019-05-02T10:46:14.442Z,6.13
2019-05-02T10:48:52.533Z,6.50
2019-05-02T10:51:34.380Z,7.00
2019-05-02T10:54:05.607Z,6.97
2019-05-02T10:56:35.585Z,7.90
2019-05-02T10:59:13.225Z,7.33
2019-05-02T11:01:59.312Z,8.40
2019-05-02T11:04:29.364Z,7.17
2019-05-02T11:06:59.118Z,7.50
2019-05-02T11:09:28.751Z,7.43
2019-05-02T11:11:58.868Z,7.27
2019-05-02T11:14:36.229Z,7.33
2019-05-02T11:17:17.668Z,6.70
2019-05-02T11:19:53.216Z,7.50
2019-05-02T11:22:22.841Z,7.43
2019-05-02T11:24:52.518Z,7.77
2019-05-02T11:27:22.226Z,6.80
2019-05-02T11:29:52.566Z,7.83
2019-05-02T11:32:22.446Z,7.57
2019-05-02T11:34:52.490Z,7.83
2019-05-02T11:37:22.617Z,8.40
2019-05-02T11:39:58.898Z,5.90
2019-05-02T11:42:27.253Z,8.83
2019-05-02T11:44:55.073Z,7.97
2019-05-02T11:47:26.568Z,9.73
2019-05-02T11:49:56.145Z,9.13
2019-05-02T11:52:27.506Z,8.67
2019-05-02T11:54:56.938Z,9.67
2019-05-02T11:57:28.645Z,8.80
2019-05-02T11:59:59.371Z,9.90
2019-05-02T12:02:58.338Z,8.50
2019-05-02T12:05:35.731Z,9.47
2019-05-02T12:08:08.040Z,9.00
2019-05-02T12:10:36.822Z,9.70
2019-05-02T12:13:13.836Z,9.40
2019-05-02T12:15:38.236Z,8.57
2019-05-02T12:18:08.216Z,8.33
2019-05-02T12:20:37.877Z,8.20
2019-05-02T12:23:09.206Z,9.33
2019-05-02T12:25:38.838Z,8.33
2019-05-02T12:28:08.655Z,7.80
2019-05-02T12:30:38.389Z,8.17
2019-05-02T12:33:08.102Z,8.47
2019-05-02T12:35:37.912Z,8.13
2019-05-02T12:38:12.216Z,7.93
2019-05-02T12:40:59.364Z,8.80
2019-05-02T12:43:29.126Z,7.73
2019-05-02T12:45:58.985Z,9.40
2019-05-02T12:48:28.627Z,8.07
2019-05-02T12:51:02.010Z,7.60
2019-05-02T12:53:32.632Z,7.03
2019-05-02T12:56:02.397Z,7.23
2019-05-02T12:58:32.617Z,6.43
2019-05-02T13:01:02.920Z,7.37
2019-05-02T13:04:03.874Z,6.87
2019-05-02T13:06:36.755Z,6.80
2019-05-02T13:09:08.427Z,6.83
2019-05-02T13:12:00.249Z,6.60
2019-05-02T13:14:32.029Z,6.47
2019-05-02T13:17:05.611Z,6.40
2019-05-02T13:19:40.652Z,6.30
2019-05-02T13:22:22.229Z,5.60
2019-05-02T13:24:57.816Z,6.00
2019-05-02T13:27:43.258Z,7.03
2019-05-02T13:30:03.479Z,4.63
2019-05-02T13:32:37.808Z,5.60
2019-05-02T13:35:24.587Z,6.17
2019-05-02T13:37:55.944Z,6.40
2019-05-02T13:40:35.714Z,5.60
2019-05-02T13:43:05.252Z,5.63
2019-05-02T13:45:53.913Z,6.30
2019-05-02T13:48:23.447Z,5.63
2019-05-02T13:50:53.129Z,6.33
2019-05-02T13:53:22.785Z,6.47
2019-05-02T13:55:58.795Z,5.03
2019-05-02T13:58:29.210Z,6.47
2019-05-02T14:00:59.840Z,5.33
2019-05-02T14:03:29.416Z,5.20
2019-05-02T14:05:58.888Z,5.70
2019-05-02T14:08:43.710Z,6.23
2019-05-02T14:11:31.743Z,4.93
2019-05-02T14:14:01.946Z,5.67
2019-05-02T14:16:34.615Z,5.53
2019-05-02T14:19:07.221Z,5.60
2019-05-02T14:21:36.838Z,5.30
2019-05-02T14:24:06.493Z,6.37
2019-05-02T14:26:35.949Z,6.00
2019-05-02T14:29:07.098Z,5.70
2019-05-02T14:31:36.979Z,6.33
2019-05-02T14:34:27.453Z,5.60
2019-05-02T14:36:59.307Z,5.83
2019-05-02T14:39:28.275Z,5.63
2019-05-02T14:41:58.025Z,6.10
2019-05-02T14:44:50.790Z,6.10
2019-05-02T14:46:58.955Z,5.20
2019-05-02T14:49:28.669Z,3.43
2019-05-02T14:52:02.916Z,4.70
2019-05-02T14:54:29.758Z,6.40
2019-05-02T14:57:09.357Z,5.53
2019-05-02T14:59:38.988Z,5.30
2019-05-02T15:02:13.148Z,5.83
2019-05-02T15:04:47.301Z,6.30
2019-05-02T15:07:17.589Z,6.67
2019-05-02T15:09:45.534Z,6.00
2019-05-02T15:12:18.846Z,6.47
2019-05-02T15:14:49.739Z,6.13
2019-05-02T15:17:18.063Z,6.83
2019-05-02T15:19:47.648Z,6.33
2019-05-02T15:22:17.229Z,5.90
2019-05-02T15:24:46.741Z,5.97
2019-05-02T15:27:17.711Z,6.27
2019-05-02T15:29:47.546Z,7.10
2019-05-02T15:32:46.202Z,6.43
2019-05-02T15:35:35.853Z,5.60
2019-05-02T15:38:06.805Z,6.50
2019-05-02T15:40:48.117Z,6.50
2019-05-02T15:43:09.585Z,6.47
2019-05-02T15:45:43.470Z,6.30
2019-05-02T15:48:14.608Z,7.00
2019-05-02T15:50:50.252Z,6.70
2019-05-02T15:53:19.283Z,6.37
2019-05-02T15:55:50.059Z,6.97
2019-05-02T15:58:26.078Z,7.10
2019-05-02T16:01:11.998Z,7.53
2019-05-02T16:03:45.892Z,7.47
2019-05-02T16:06:16.464Z,7.33
2019-05-02T16:08:48.651Z,8.63
2019-05-02T16:11:18.585Z,7.77
2019-05-02T16:13:54.736Z,8.87
2019-05-02T16:16:22.022Z,7.30
2019-05-02T16:18:52.542Z,8.37
2019-05-02T16:21:32.611Z,8.83
2019-05-02T16:24:22.889Z,8.63
2019-05-02T16:26:57.075Z,8.30
2019-05-02T16:29:28.701Z,8.83
2019-05-02T16:32:15.242Z,8.43
2019-05-02T16:35:12.205Z,8.00
2019-05-02T16:37:37.159Z,8.00
2019-05-02T16:40:07.584Z,8.23
2019-05-02T16:42:37.781Z,8.17
2019-05-02T16:45:09.438Z,8.47
2019-05-02T16:47:39.221Z,8.67
2019-05-02T16:50:09.312Z,8.80
2019-05-02T16:52:43.725Z,8.70
2019-05-02T16:55:13.678Z,8.00
2019-05-02T16:57:42.436Z,8.07
2019-05-02T17:00:14.158Z,8.00
2019-05-02T17:02:46.346Z,7.87
2019-05-02T17:05:15.395Z,8.50
2019-05-02T17:08:03.196Z,8.13
2019-05-02T17:10:56.882Z,8.80
2019-05-02T17:13:27.411Z,9.97
2019-05-02T17:15:57.872Z,10.17
2019-05-02T17:18:27.705Z,9.33
2019-05-02T17:20:57.307Z,9.37
2019-05-02T17:23:26.942Z,8.73
2019-05-02T17:25:56.511Z,9.37
2019-05-02T17:28:26.171Z,9.53
2019-05-02T17:30:55.834Z,11.07
2019-05-02T17:33:25.476Z,10.37
2019-05-02T17:35:55.101Z,10.00
2019-05-02T17:38:29.082Z,9.67
2019-05-02T17:40:59.219Z,10.63
2019-05-02T17:43:37.470Z,10.17
2019-05-02T17:46:07.490Z,10.63
2019-05-02T17:48:37.360Z,9.43
2019-05-02T17:51:22.744Z,10.17
2019-05-02T17:53:52.433Z,10.47
2019-05-02T17:56:23.182Z,10.80
2019-05-02T17:58:58.160Z,10.90
2019-05-02T18:01:35.365Z,11.33
2019-05-02T18:04:06.683Z,10.53
2019-05-02T18:06:36.792Z,11.03
2019-05-02T18:09:08.388Z,10.83
2019-05-02T18:11:38.060Z,11.30
2019-05-02T18:14:16.152Z,8.27
2019-05-02T18:16:41.844Z,6.70
2019-05-02T18:19:11.153Z,5.87
2019-05-02T19:46:42.236Z,10.67
2019-05-02T19:49:16.023Z,11.53
2019-05-02T19:51:43.431Z,10.93
2019-05-02T19:54:12.903Z,11.70
2019-05-02T19:56:47.130Z,12.47
2019-05-02T19:59:16.833Z,12.10
2019-05-02T20:01:45.053Z,12.23
2019-05-02T20:04:14.623Z,13.20
2019-05-02T20:06:44.284Z,13.37
2019-05-02T20:09:13.940Z,13.47
2019-05-02T20:11:43.536Z,13.47
2019-05-02T20:14:13.145Z,14.63
2019-05-02T20:16:48.313Z,14.00
2019-05-02T20:19:24.999Z,14.63
2019-05-02T20:22:08.219Z,12.77
2019-05-02T20:24:59.800Z,13.07
2019-05-02T20:27:27.970Z,14.30
2019-05-02T20:29:56.609Z,13.07
2019-05-02T20:32:26.286Z,12.57
2019-05-02T20:34:55.861Z,14.37
2019-05-02T20:37:25.638Z,15.63
2019-05-02T20:39:55.181Z,15.37
2019-05-02T20:42:24.734Z,15.00
2019-05-02T20:44:54.328Z,15.50
2019-05-02T20:47:24.854Z,14.20
2019-05-02T20:49:54.396Z,15.50
2019-05-02T20:52:24.104Z,15.20
2019-05-02T20:54:53.742Z,17.80
2019-05-02T20:57:23.462Z,16.37
2019-05-02T20:59:53.128Z,15.83
2019-05-02T21:02:22.786Z,15.87
2019-05-02T21:04:52.501Z,15.47
2019-05-02T21:07:33.083Z,15.87
2019-05-02T21:10:18.831Z,15.53
2019-05-02T21:12:48.486Z,16.27
2019-05-02T21:15:18.388Z,16.10
2019-05-02T21:17:47.903Z,16.30
2019-05-02T21:20:18.014Z,13.43
2019-05-02T21:22:47.691Z,14.57
2019-05-02T21:25:17.275Z,14.57
2019-05-02T21:27:46.964Z,13.57
2019-05-02T21:30:21.723Z,14.57
2019-05-02T21:32:52.051Z,13.53
2019-05-02T21:35:22.370Z,13.80
2019-05-02T21:37:52.447Z,13.97
2019-05-02T21:40:22.695Z,15.23
2019-05-02T21:42:53.340Z,13.37
2019-05-02T21:45:22.913Z,15.43
2019-05-02T21:47:52.823Z,14.43
2019-05-02T21:50:40.300Z,14.23
2019-05-02T21:53:32.740Z,13.77
2019-05-02T21:56:12.293Z,13.63
2019-05-02T21:59:02.842Z,14.27
2019-05-02T22:01:33.041Z,14.63
2019-05-02T22:04:02.557Z,13.73
2019-05-02T22:06:32.463Z,13.50
2019-05-02T22:09:03.036Z,15.33
2019-05-02T22:11:32.687Z,14.10
2019-05-02T22:14:02.498Z,14.77
2019-05-02T22:16:32.670Z,15.00
2019-05-02T22:19:02.940Z,13.23
2019-05-02T22:21:35.204Z,14.57
2019-05-02T22:24:11.031Z,14.40
2019-05-02T22:26:35.244Z,13.60
2019-05-02T22:29:04.849Z,15.57
2019-05-02T22:31:34.499Z,14.20
2019-05-02T22:34:04.176Z,14.17
2019-05-02T22:36:33.766Z,14.53
2019-05-02T22:39:16.202Z,17.13
2019-05-02T22:41:45.652Z,15.90
2019-05-02T22:44:15.176Z,15.30
2019-05-02T22:46:45.500Z,16.10
2019-05-02T22:49:15.361Z,15.17
2019-05-02T22:51:45.113Z,16.27
2019-05-02T22:54:26.681Z,16.73
2019-05-02T22:56:46.013Z,16.93
2019-05-02T22:59:15.586Z,17.13
2019-05-02T23:01:45.246Z,17.20
2019-05-02T23:04:14.730Z,16.73
2019-05-02T23:06:44.436Z,16.40
2019-05-02T23:09:14.019Z,17.93
2019-05-02T23:11:43.569Z,16.33
2019-05-02T23:14:13.209Z,16.93
2019-05-02T23:16:42.991Z,15.00
2019-05-02T23:19:12.634Z,15.83
2019-05-02T23:21:42.542Z,16.97
2019-05-02T23:24:23.760Z,15.07
2019-05-02T23:27:03.584Z,15.20
2019-05-02T23:29:33.141Z,14.27
2019-05-02T23:32:02.658Z,14.60
2019-05-02T23:34:32.446Z,14.37
2019-05-02T23:37:02.654Z,15.00
2019-05-02T23:39:32.373Z,14.77
2019-05-02T23:42:02.101Z,15.40
2019-05-02T23:44:31.678Z,15.87
2019-05-02T23:47:02.351Z,13.83
2019-05-02T23:49:32.483Z,14.90
2019-05-02T23:52:02.316Z,14.93
2019-05-02T23:54:32.432Z,15.67
2019-05-02T23:57:02.108Z,14.57
2019-05-02T23:59:31.895Z,16.60
